University Park, New Mexico
Current Conditions -  °F | °C
As of 12:55 PM on Saturday 25 Oct 2014 (Local Time) from KLRU Reporting Station
Clear Clear  
Wind Chill: 79°   Ceiling: Unl
Heat Index: 79°   Visibility: 10mi
Dew Point: 43°   Wind: 6mph
Humidity: 28%   Direction: 210°SSW
Pressure: 30.26"   Gusts: NA
Location:  32.2825°N, 106.737°W
Report Text: KLRU 251855Z AUTO 21005KT 10SM CLR 26/06 A3026 RMK AO2 T02600060
Loading
Personal Weather Stations






























Interactive Weather Map
Tropical Storm Tracking
New forecast layout! Learn more

10-Day Weather Forecast

Advertisements
Track Severe Weather on mobile